Valdosta, Georgia
Current Conditions -  °F | °C
As of 11:53 AM on Thursday 30 Oct 2014 (Local Time) from KVLD Reporting Station
Overcast Overcast  
Wind Chill: 65°   Ceiling: 4000
Heat Index: 65°   Visibility: 10mi
Dew Point: 45°   Wind: 0mph
Humidity: 48%   Direction: NA
Pressure: 30.02"   Gusts: NA
Location:  30.84°N, 83.28°W
Report Text: KVLD 301553Z 00000KT 10SM BKN040 OVC080 18/07 A3002 RMK AO2 RAB21E37 SLP173 P0000 T01830072
Loading
Personal Weather Stations






























Interactive Weather Map
Tropical Storm Tracking
New forecast layout! Learn more

10-Day Weather Forecast

Advertisements
Track Severe Weather on mobile